sensor_id;sensor_type;location;lat;lon;timestamp;temperature;humidity
2851;DHT22;1433;49.976;8.342;2023-04-24T00:01:06;11.20;99.90
2851;DHT22;1433;49.976;8.342;2023-04-24T00:03:33;11.30;99.90
2851;DHT22;1433;49.976;8.342;2023-04-24T00:05:59;11.30;99.90
2851;DHT22;1433;49.976;8.342;2023-04-24T00:08:26;11.30;99.90
2851;DHT22;1433;49.976;8.342;2023-04-24T00:10:53;11.30;99.90
2851;DHT22;1433;49.976;8.342;2023-04-24T00:13:19;11.30;99.90
2851;DHT22;1433;49.976;8.342;2023-04-24T00:15:45;11.30;99.90
2851;DHT22;1433;49.976;8.342;2023-04-24T00:18:11;11.30;99.90
2851;DHT22;1433;49.976;8.342;2023-04-24T00:20:38;11.30;99.90
2851;DHT22;1433;49.976;8.342;2023-04-24T00:23:04;11.30;99.90
2851;DHT22;1433;49.976;8.342;2023-04-24T00:25:30;11.30;99.90
2851;DHT22;1433;49.976;8.342;2023-04-24T00:27:56;11.30;99.90
2851;DHT22;1433;49.976;8.342;2023-04-24T00:30:22;11.30;99.90
2851;DHT22;1433;49.976;8.342;2023-04-24T00:32:49;11.30;99.90
2851;DHT22;1433;49.976;8.342;2023-04-24T00:35:15;11.20;99.90
2851;DHT22;1433;49.976;8.342;2023-04-24T00:37:42;11.20;99.90
2851;DHT22;1433;49.976;8.342;2023-04-24T00:40:09;11.20;99.90
2851;DHT22;1433;49.976;8.342;2023-04-24T00:42:36;11.10;99.90
2851;DHT22;1433;49.976;8.342;2023-04-24T00:45:04;11.00;99.90
2851;DHT22;1433;49.976;8.342;2023-04-24T00:47:33;10.90;99.90
2851;DHT22;1433;49.976;8.342;2023-04-24T00:50:03;10.80;99.90
2851;DHT22;1433;49.976;8.342;2023-04-24T00:52:30;10.80;99.90
2851;DHT22;1433;49.976;8.342;2023-04-24T00:54:58;10.90;99.90
2851;DHT22;1433;49.976;8.342;2023-04-24T00:57:24;10.90;99.90
2851;DHT22;1433;49.976;8.342;2023-04-24T00:59:51;10.90;99.90
2851;DHT22;1433;49.976;8.342;2023-04-24T01:02:19;10.90;99.90
2851;DHT22;1433;49.976;8.342;2023-04-24T01:04:50;10.90;99.90
2851;DHT22;1433;49.976;8.342;2023-04-24T01:07:21;10.90;99.90
2851;DHT22;1433;49.976;8.342;2023-04-24T01:09:48;10.90;99.90
2851;DHT22;1433;49.976;8.342;2023-04-24T01:12:18;10.80;99.90
2851;DHT22;1433;49.976;8.342;2023-04-24T01:14:45;10.80;99.90
2851;DHT22;1433;49.976;8.342;2023-04-24T01:17:11;10.70;99.90
2851;DHT22;1433;49.976;8.342;2023-04-24T01:19:38;10.70;99.90
2851;DHT22;1433;49.976;8.342;2023-04-24T01:22:13;10.70;99.90
2851;DHT22;1433;49.976;8.342;2023-04-24T01:24:39;10.70;99.90
2851;DHT22;1433;49.976;8.342;2023-04-24T01:27:06;10.80;99.90
2851;DHT22;1433;49.976;8.342;2023-04-24T01:29:32;10.80;99.90
2851;DHT22;1433;49.976;8.342;2023-04-24T01:31:58;10.80;99.90
2851;DHT22;1433;49.976;8.342;2023-04-24T01:34:25;10.80;99.90
2851;DHT22;1433;49.976;8.342;2023-04-24T01:36:52;10.80;99.90
2851;DHT22;1433;49.976;8.342;2023-04-24T01:39:19;10.80;99.90
2851;DHT22;1433;49.976;8.342;2023-04-24T01:41:46;10.80;99.90
2851;DHT22;1433;49.976;8.342;2023-04-24T01:44:12;10.80;99.90
2851;DHT22;1433;49.976;8.342;2023-04-24T01:46:38;10.70;99.90
2851;DHT22;1433;49.976;8.342;2023-04-24T01:49:05;10.70;99.90
2851;DHT22;1433;49.976;8.342;2023-04-24T01:51:31;10.80;99.90
2851;DHT22;1433;49.976;8.342;2023-04-24T01:53:58;10.80;99.90
2851;DHT22;1433;49.976;8.342;2023-04-24T01:56:24;10.80;99.90
2851;DHT22;1433;49.976;8.342;2023-04-24T01:58:52;10.80;99.90
2851;DHT22;1433;49.976;8.342;2023-04-24T02:01:20;10.80;99.90
2851;DHT22;1433;49.976;8.342;2023-04-24T02:03:47;10.80;99.90
2851;DHT22;1433;49.976;8.342;2023-04-24T02:06:13;10.80;99.90
2851;DHT22;1433;49.976;8.342;2023-04-24T02:08:39;10.90;99.90
2851;DHT22;1433;49.976;8.342;2023-04-24T02:11:06;10.90;99.90
2851;DHT22;1433;49.976;8.342;2023-04-24T02:13:32;11.00;99.90
2851;DHT22;1433;49.976;8.342;2023-04-24T02:16:00;11.00;99.90
2851;DHT22;1433;49.976;8.342;2023-04-24T02:18:26;11.00;99.90
2851;DHT22;1433;49.976;8.342;2023-04-24T02:20:53;11.10;99.90
2851;DHT22;1433;49.976;8.342;2023-04-24T02:23:20;11.10;99.90
2851;DHT22;1433;49.976;8.342;2023-04-24T02:25:46;11.10;99.90
2851;DHT22;1433;49.976;8.342;2023-04-24T02:28:13;11.10;99.90
2851;DHT22;1433;49.976;8.342;2023-04-24T02:30:39;11.00;99.90
2851;DHT22;1433;49.976;8.342;2023-04-24T02:33:05;11.10;99.90
2851;DHT22;1433;49.976;8.342;2023-04-24T02:35:32;11.00;99.90
2851;DHT22;1433;49.976;8.342;2023-04-24T02:37:58;11.00;99.90
2851;DHT22;1433;49.976;8.342;2023-04-24T02:40:24;11.10;99.90
2851;DHT22;1433;49.976;8.342;2023-04-24T02:42:51;11.10;99.90
2851;DHT22;1433;49.976;8.342;2023-04-24T02:45:17;11.10;99.90
2851;DHT22;1433;49.976;8.342;2023-04-24T02:47:43;11.10;99.90
2851;DHT22;1433;49.976;8.342;2023-04-24T02:50:10;11.20;99.90
2851;DHT22;1433;49.976;8.342;2023-04-24T02:52:38;11.20;99.90
2851;DHT22;1433;49.976;8.342;2023-04-24T02:55:04;11.20;99.90
2851;DHT22;1433;49.976;8.342;2023-04-24T02:57:31;11.20;99.90
2851;DHT22;1433;49.976;8.342;2023-04-24T02:59:57;11.20;99.90
2851;DHT22;1433;49.976;8.342;2023-04-24T03:02:23;11.20;99.90
2851;DHT22;1433;49.976;8.342;2023-04-24T03:04:50;11.20;99.90
2851;DHT22;1433;49.976;8.342;2023-04-24T03:07:16;11.20;99.90
2851;DHT22;1433;49.976;8.342;2023-04-24T03:09:43;11.20;99.90
2851;DHT22;1433;49.976;8.342;2023-04-24T03:12:09;11.20;99.90
2851;DHT22;1433;49.976;8.342;2023-04-24T03:14:35;11.30;99.90
2851;DHT22;1433;49.976;8.342;2023-04-24T03:17:01;11.20;99.90
2851;DHT22;1433;49.976;8.342;2023-04-24T03:19:27;11.30;99.90
2851;DHT22;1433;49.976;8.342;2023-04-24T03:21:55;11.30;99.90
2851;DHT22;1433;49.976;8.342;2023-04-24T03:24:22;11.30;99.90
2851;DHT22;1433;49.976;8.342;2023-04-24T03:26:56;11.20;99.90
2851;DHT22;1433;49.976;8.342;2023-04-24T03:29:41;11.20;99.90
2851;DHT22;1433;49.976;8.342;2023-04-24T03:32:08;11.20;99.90
2851;DHT22;1433;49.976;8.342;2023-04-24T03:34:35;11.20;99.90
2851;DHT22;1433;49.976;8.342;2023-04-24T03:37:02;11.10;99.90
2851;DHT22;1433;49.976;8.342;2023-04-24T03:39:30;11.10;99.90
2851;DHT22;1433;49.976;8.342;2023-04-24T03:41:56;11.10;99.90
2851;DHT22;1433;49.976;8.342;2023-04-24T03:44:24;11.10;99.90
2851;DHT22;1433;49.976;8.342;2023-04-24T03:46:50;11.10;99.90
2851;DHT22;1433;49.976;8.342;2023-04-24T03:49:18;11.10;99.90
2851;DHT22;1433;49.976;8.342;2023-04-24T03:51:46;11.10;99.90
2851;DHT22;1433;49.976;8.342;2023-04-24T03:54:17;11.10;99.90
2851;DHT22;1433;49.976;8.342;2023-04-24T03:56:44;11.10;99.90
2851;DHT22;1433;49.976;8.342;2023-04-24T03:59:11;11.10;99.90
2851;DHT22;1433;49.976;8.342;2023-04-24T04:01:38;11.00;99.90
2851;DHT22;1433;49.976;8.342;2023-04-24T04:04:07;11.00;99.90
2851;DHT22;1433;49.976;8.342;2023-04-24T04:06:35;10.90;99.90
2851;DHT22;1433;49.976;8.342;2023-04-24T04:09:02;10.90;99.90
2851;DHT22;1433;49.976;8.342;2023-04-24T04:11:29;10.80;99.90
2851;DHT22;1433;49.976;8.342;2023-04-24T04:13:56;10.70;99.90
2851;DHT22;1433;49.976;8.342;2023-04-24T04:16:23;10.60;99.90
2851;DHT22;1433;49.976;8.342;2023-04-24T04:18:51;10.50;99.90
2851;DHT22;1433;49.976;8.342;2023-04-24T04:21:17;10.50;99.90
2851;DHT22;1433;49.976;8.342;2023-04-24T04:23:43;10.40;99.90
2851;DHT22;1433;49.976;8.342;2023-04-24T04:26:14;10.30;99.90
2851;DHT22;1433;49.976;8.342;2023-04-24T04:28:45;10.20;99.90
2851;DHT22;1433;49.976;8.342;2023-04-24T04:31:11;10.20;99.90
2851;DHT22;1433;49.976;8.342;2023-04-24T04:33:39;10.20;99.90
2851;DHT22;1433;49.976;8.342;2023-04-24T04:36:06;10.10;99.90
2851;DHT22;1433;49.976;8.342;2023-04-24T04:38:35;10.10;99.90
2851;DHT22;1433;49.976;8.342;2023-04-24T04:41:10;10.00;99.90
2851;DHT22;1433;49.976;8.342;2023-04-24T04:43:37;9.90;99.90
2851;DHT22;1433;49.976;8.342;2023-04-24T04:46:05;9.80;99.90
2851;DHT22;1433;49.976;8.342;2023-04-24T04:48:52;9.80;99.90
2851;DHT22;1433;49.976;8.342;2023-04-24T04:51:19;9.70;99.90
2851;DHT22;1433;49.976;8.342;2023-04-24T04:53:45;9.70;99.90
2851;DHT22;1433;49.976;8.342;2023-04-24T04:56:11;9.60;99.90
2851;DHT22;1433;49.976;8.342;2023-04-24T04:58:42;9.70;99.90
2851;DHT22;1433;49.976;8.342;2023-04-24T05:01:10;9.70;99.90
2851;DHT22;1433;49.976;8.342;2023-04-24T05:03:39;9.80;99.90
2851;DHT22;1433;49.976;8.342;2023-04-24T05:06:07;9.70;99.90
2851;DHT22;1433;49.976;8.342;2023-04-24T05:08:35;9.70;99.90
2851;DHT22;1433;49.976;8.342;2023-04-24T05:11:01;9.70;99.90
2851;DHT22;1433;49.976;8.342;2023-04-24T05:13:28;9.60;99.90
2851;DHT22;1433;49.976;8.342;2023-04-24T05:15:55;9.60;99.90
2851;DHT22;1433;49.976;8.342;2023-04-24T05:18:22;9.50;99.90
2851;DHT22;1433;49.976;8.342;2023-04-24T05:20:49;9.50;99.90
2851;DHT22;1433;49.976;8.342;2023-04-24T05:23:15;9.50;99.90
2851;DHT22;1433;49.976;8.342;2023-04-24T05:25:43;9.60;99.90
2851;DHT22;1433;49.976;8.342;2023-04-24T05:28:11;9.50;99.90
2851;DHT22;1433;49.976;8.342;2023-04-24T05:30:37;9.50;99.90
2851;DHT22;1433;49.976;8.342;2023-04-24T05:33:04;9.50;99.90
2851;DHT22;1433;49.976;8.342;2023-04-24T05:35:32;9.50;99.90
2851;DHT22;1433;49.976;8.342;2023-04-24T05:37:58;9.60;99.90
2851;DHT22;1433;49.976;8.342;2023-04-24T05:40:24;9.60;99.90
2851;DHT22;1433;49.976;8.342;2023-04-24T05:42:50;9.50;99.90
2851;DHT22;1433;49.976;8.342;2023-04-24T05:45:17;9.50;99.90
2851;DHT22;1433;49.976;8.342;2023-04-24T05:47:43;9.40;99.90
2851;DHT22;1433;49.976;8.342;2023-04-24T05:50:11;9.40;99.90
2851;DHT22;1433;49.976;8.342;2023-04-24T05:52:37;9.40;99.90
2851;DHT22;1433;49.976;8.342;2023-04-24T05:55:05;9.40;99.90
2851;DHT22;1433;49.976;8.342;2023-04-24T05:57:34;9.40;99.90
2851;DHT22;1433;49.976;8.342;2023-04-24T06:00:04;9.40;99.90
2851;DHT22;1433;49.976;8.342;2023-04-24T06:02:33;9.60;99.90
2851;DHT22;1433;49.976;8.342;2023-04-24T06:05:00;9.60;99.90
2851;DHT22;1433;49.976;8.342;2023-04-24T06:07:27;9.80;99.90
2851;DHT22;1433;49.976;8.342;2023-04-24T06:09:54;10.10;99.90
2851;DHT22;1433;49.976;8.342;2023-04-24T06:12:21;10.30;99.90
2851;DHT22;1433;49.976;8.342;2023-04-24T06:14:58;10.40;99.90
2851;DHT22;1433;49.976;8.342;2023-04-24T06:17:30;10.50;99.90
2851;DHT22;1433;49.976;8.342;2023-04-24T06:19:57;10.80;99.90
2851;DHT22;1433;49.976;8.342;2023-04-24T06:22:24;10.80;99.90
2851;DHT22;1433;49.976;8.342;2023-04-24T06:24:50;10.90;99.90
2851;DHT22;1433;49.976;8.342;2023-04-24T06:27:17;11.00;99.90
2851;DHT22;1433;49.976;8.342;2023-04-24T06:29:43;11.10;99.90
2851;DHT22;1433;49.976;8.342;2023-04-24T06:32:10;11.20;99.90
2851;DHT22;1433;49.976;8.342;2023-04-24T06:34:37;11.30;99.90
2851;DHT22;1433;49.976;8.342;2023-04-24T06:37:03;11.30;99.90
2851;DHT22;1433;49.976;8.342;2023-04-24T06:39:29;11.40;99.90
2851;DHT22;1433;49.976;8.342;2023-04-24T06:41:56;11.50;99.90
2851;DHT22;1433;49.976;8.342;2023-04-24T06:44:23;11.60;99.90
2851;DHT22;1433;49.976;8.342;2023-04-24T06:46:49;11.50;99.90
2851;DHT22;1433;49.976;8.342;2023-04-24T06:49:16;11.60;99.90
2851;DHT22;1433;49.976;8.342;2023-04-24T06:51:42;11.40;99.90
2851;DHT22;1433;49.976;8.342;2023-04-24T06:54:08;11.30;99.90
2851;DHT22;1433;49.976;8.342;2023-04-24T06:56:35;11.30;99.90
2851;DHT22;1433;49.976;8.342;2023-04-24T06:59:01;11.30;99.90
2851;DHT22;1433;49.976;8.342;2023-04-24T07:01:27;11.30;99.90
2851;DHT22;1433;49.976;8.342;2023-04-24T07:03:53;11.40;99.90
2851;DHT22;1433;49.976;8.342;2023-04-24T07:06:19;11.60;99.90
2851;DHT22;1433;49.976;8.342;2023-04-24T07:08:48;11.60;99.90
2851;DHT22;1433;49.976;8.342;2023-04-24T07:11:14;11.50;99.90
2851;DHT22;1433;49.976;8.342;2023-04-24T07:13:40;11.60;99.90
2851;DHT22;1433;49.976;8.342;2023-04-24T07:16:08;11.80;99.90
2851;DHT22;1433;49.976;8.342;2023-04-24T07:18:34;11.90;99.90
2851;DHT22;1433;49.976;8.342;2023-04-24T07:21:02;11.80;99.90
2851;DHT22;1433;49.976;8.342;2023-04-24T07:23:28;11.70;1.00
2851;DHT22;1433;49.976;8.342;2023-04-24T07:25:54;11.50;1.00
2851;DHT22;1433;49.976;8.342;2023-04-24T07:28:21;11.50;51.20
2851;DHT22;1433;49.976;8.342;2023-04-24T07:30:47;11.50;99.90
2851;DHT22;1433;49.976;8.342;2023-04-24T07:33:13;11.50;99.90
2851;DHT22;1433;49.976;8.342;2023-04-24T07:35:39;11.60;99.90
2851;DHT22;1433;49.976;8.342;2023-04-24T07:38:06;11.50;99.90
2851;DHT22;1433;49.976;8.342;2023-04-24T07:40:32;11.60;1.00
2851;DHT22;1433;49.976;8.342;2023-04-24T07:42:58;11.70;1.00
2851;DHT22;1433;49.976;8.342;2023-04-24T07:45:25;11.90;1.00
2851;DHT22;1433;49.976;8.342;2023-04-24T07:47:53;11.90;1.00
2851;DHT22;1433;49.976;8.342;2023-04-24T07:50:20;11.80;1.00
2851;DHT22;1433;49.976;8.342;2023-04-24T07:52:46;11.90;1.00
2851;DHT22;1433;49.976;8.342;2023-04-24T07:55:13;11.90;1.00
2851;DHT22;1433;49.976;8.342;2023-04-24T07:57:39;11.90;1.00
2851;DHT22;1433;49.976;8.342;2023-04-24T08:00:06;11.70;1.00
2851;DHT22;1433;49.976;8.342;2023-04-24T08:02:39;11.70;1.00
2851;DHT22;1433;49.976;8.342;2023-04-24T08:05:06;11.90;1.00
2851;DHT22;1433;49.976;8.342;2023-04-24T08:07:32;12.00;1.00
2851;DHT22;1433;49.976;8.342;2023-04-24T08:09:59;12.10;99.90
2851;DHT22;1433;49.976;8.342;2023-04-24T08:12:25;12.20;99.90
2851;DHT22;1433;49.976;8.342;2023-04-24T08:14:51;12.40;99.90
2851;DHT22;1433;49.976;8.342;2023-04-24T08:17:17;12.60;51.30
2851;DHT22;1433;49.976;8.342;2023-04-24T08:19:44;12.80;63.60
2851;DHT22;1433;49.976;8.342;2023-04-24T08:22:12;12.80;1.00
2851;DHT22;1433;49.976;8.342;2023-04-24T08:24:38;12.90;99.90
2851;DHT22;1433;49.976;8.342;2023-04-24T08:27:04;12.90;99.90
2851;DHT22;1433;49.976;8.342;2023-04-24T08:29:30;12.90;1.00
2851;DHT22;1433;49.976;8.342;2023-04-24T08:31:56;12.80;1.00
2851;DHT22;1433;49.976;8.342;2023-04-24T08:34:23;12.60;99.90
2851;DHT22;1433;49.976;8.342;2023-04-24T08:36:49;12.50;99.90
2851;DHT22;1433;49.976;8.342;2023-04-24T08:39:17;12.30;99.90
2851;DHT22;1433;49.976;8.342;2023-04-24T08:41:44;12.20;1.00
2851;DHT22;1433;49.976;8.342;2023-04-24T08:44:12;12.00;1.00
2851;DHT22;1433;49.976;8.342;2023-04-24T08:46:48;11.90;1.00
2851;DHT22;1433;49.976;8.342;2023-04-24T08:49:15;11.90;1.00
2851;DHT22;1433;49.976;8.342;2023-04-24T08:51:42;11.80;1.00
2851;DHT22;1433;49.976;8.342;2023-04-24T08:54:08;11.90;1.00
2851;DHT22;1433;49.976;8.342;2023-04-24T08:56:36;12.10;1.00
2851;DHT22;1433;49.976;8.342;2023-04-24T08:59:06;12.30;99.90
2851;DHT22;1433;49.976;8.342;2023-04-24T09:01:33;12.30;99.90
2851;DHT22;1433;49.976;8.342;2023-04-24T09:04:02;12.20;63.80
2851;DHT22;1433;49.976;8.342;2023-04-24T09:06:30;12.20;99.90
2851;DHT22;1433;49.976;8.342;2023-04-24T09:09:00;12.40;99.90
2851;DHT22;1433;49.976;8.342;2023-04-24T09:11:27;12.50;1.00
2851;DHT22;1433;49.976;8.342;2023-04-24T09:13:54;12.50;1.00
2851;DHT22;1433;49.976;8.342;2023-04-24T09:16:21;12.60;1.00
2851;DHT22;1433;49.976;8.342;2023-04-24T09:18:48;12.70;99.90
2851;DHT22;1433;49.976;8.342;2023-04-24T09:21:15;12.70;99.90
2851;DHT22;1433;49.976;8.342;2023-04-24T09:23:41;12.50;99.90
2851;DHT22;1433;49.976;8.342;2023-04-24T09:26:09;12.50;99.90
2851;DHT22;1433;49.976;8.342;2023-04-24T09:28:37;12.50;99.90
2851;DHT22;1433;49.976;8.342;2023-04-24T09:31:18;12.40;99.90
2851;DHT22;1433;49.976;8.342;2023-04-24T09:33:36;12.50;99.10
2851;DHT22;1433;49.976;8.342;2023-04-24T09:36:03;12.30;1.00
2851;DHT22;1433;49.976;8.342;2023-04-24T09:38:38;12.30;99.90
2851;DHT22;1433;49.976;8.342;2023-04-24T09:41:02;12.40;99.90
2851;DHT22;1433;49.976;8.342;2023-04-24T09:43:29;12.70;99.90
2851;DHT22;1433;49.976;8.342;2023-04-24T09:45:57;12.60;99.90
2851;DHT22;1433;49.976;8.342;2023-04-24T09:48:36;12.60;99.90
2851;DHT22;1433;49.976;8.342;2023-04-24T09:51:01;12.80;99.90
2851;DHT22;1433;49.976;8.342;2023-04-24T09:53:28;12.90;99.90
2851;DHT22;1433;49.976;8.342;2023-04-24T09:55:55;12.60;99.90
2851;DHT22;1433;49.976;8.342;2023-04-24T09:58:25;12.50;1.00
2851;DHT22;1433;49.976;8.342;2023-04-24T10:00:55;12.60;1.00
2851;DHT22;1433;49.976;8.342;2023-04-24T10:03:25;12.50;1.00
2851;DHT22;1433;49.976;8.342;2023-04-24T10:05:53;12.20;1.00
2851;DHT22;1433;49.976;8.342;2023-04-24T10:08:20;12.20;1.00
2851;DHT22;1433;49.976;8.342;2023-04-24T10:10:46;12.10;1.00
2851;DHT22;1433;49.976;8.342;2023-04-24T10:13:14;11.90;1.00
2851;DHT22;1433;49.976;8.342;2023-04-24T10:15:41;12.00;99.90
2851;DHT22;1433;49.976;8.342;2023-04-24T10:18:09;12.20;17.80
2851;DHT22;1433;49.976;8.342;2023-04-24T10:20:38;12.50;1.00
2851;DHT22;1433;49.976;8.342;2023-04-24T10:23:05;12.80;1.00
2851;DHT22;1433;49.976;8.342;2023-04-24T10:25:33;12.90;99.90
2851;DHT22;1433;49.976;8.342;2023-04-24T10:28:01;12.90;91.10
2851;DHT22;1433;49.976;8.342;2023-04-24T10:30:29;12.50;99.90
2851;DHT22;1433;49.976;8.342;2023-04-24T10:32:56;12.10;99.90
2851;DHT22;1433;49.976;8.342;2023-04-24T10:35:23;11.80;99.90
2851;DHT22;1433;49.976;8.342;2023-04-24T10:38:09;11.70;99.90
2851;DHT22;1433;49.976;8.342;2023-04-24T10:40:36;11.50;99.90
2851;DHT22;1433;49.976;8.342;2023-04-24T10:43:07;11.70;99.90
2851;DHT22;1433;49.976;8.342;2023-04-24T10:45:35;12.10;99.90
2851;DHT22;1433;49.976;8.342;2023-04-24T10:48:06;12.20;99.90
2851;DHT22;1433;49.976;8.342;2023-04-24T10:50:51;11.90;99.90
2851;DHT22;1433;49.976;8.342;2023-04-24T10:53:21;11.60;99.90
2851;DHT22;1433;49.976;8.342;2023-04-24T10:55:50;11.60;99.90
2851;DHT22;1433;49.976;8.342;2023-04-24T10:58:24;11.60;99.90
2851;DHT22;1433;49.976;8.342;2023-04-24T11:00:58;11.80;99.90
2851;DHT22;1433;49.976;8.342;2023-04-24T11:03:27;12.00;99.90
2851;DHT22;1433;49.976;8.342;2023-04-24T11:06:02;12.90;23.60
2851;DHT22;1433;49.976;8.342;2023-04-24T11:08:47;13.10;1.00
2851;DHT22;1433;49.976;8.342;2023-04-24T11:11:13;12.70;99.90
2851;DHT22;1433;49.976;8.342;2023-04-24T11:21:41;12.40;1.00
2851;DHT22;1433;49.976;8.342;2023-04-24T11:24:24;12.10;99.90
2851;DHT22;1433;49.976;8.342;2023-04-24T11:29:46;12.30;99.90
2851;DHT22;1433;49.976;8.342;2023-04-24T11:35:21;12.70;99.90
2851;DHT22;1433;49.976;8.342;2023-04-24T11:37:52;12.90;99.90
2851;DHT22;1433;49.976;8.342;2023-04-24T11:40:20;13.60;1.00
2851;DHT22;1433;49.976;8.342;2023-04-24T11:42:47;14.20;1.00
2851;DHT22;1433;49.976;8.342;2023-04-24T11:45:16;14.00;1.00
2851;DHT22;1433;49.976;8.342;2023-04-24T11:47:43;14.80;1.00
2851;DHT22;1433;49.976;8.342;2023-04-24T11:50:15;15.10;99.90
2851;DHT22;1433;49.976;8.342;2023-04-24T11:52:43;15.00;45.10
2851;DHT22;1433;49.976;8.342;2023-04-24T11:57:47;14.90;1.00
2851;DHT22;1433;49.976;8.342;2023-04-24T12:00:28;15.90;1.00
2851;DHT22;1433;49.976;8.342;2023-04-24T12:03:10;16.70;72.90
2851;DHT22;1433;49.976;8.342;2023-04-24T12:05:39;16.20;1.00
2851;DHT22;1433;49.976;8.342;2023-04-24T12:08:07;15.20;1.00
2851;DHT22;1433;49.976;8.342;2023-04-24T12:10:37;13.20;99.90
2851;DHT22;1433;49.976;8.342;2023-04-24T12:13:09;10.90;99.90
2851;DHT22;1433;49.976;8.342;2023-04-24T12:15:35;10.10;99.90
2851;DHT22;1433;49.976;8.342;2023-04-24T12:18:04;10.00;99.90
2851;DHT22;1433;49.976;8.342;2023-04-24T12:20:32;9.90;99.90
2851;DHT22;1433;49.976;8.342;2023-04-24T12:23:00;9.90;99.90
2851;DHT22;1433;49.976;8.342;2023-04-24T12:28:13;10.20;99.90
2851;DHT22;1433;49.976;8.342;2023-04-24T12:30:41;10.30;99.90
2851;DHT22;1433;49.976;8.342;2023-04-24T12:33:10;10.50;99.90
2851;DHT22;1433;49.976;8.342;2023-04-24T12:35:36;10.90;99.90
2851;DHT22;1433;49.976;8.342;2023-04-24T12:38:07;11.50;99.90
2851;DHT22;1433;49.976;8.342;2023-04-24T12:40:34;12.10;99.90
2851;DHT22;1433;49.976;8.342;2023-04-24T12:43:00;12.70;99.90
2851;DHT22;1433;49.976;8.342;2023-04-24T12:45:27;13.10;99.90
2851;DHT22;1433;49.976;8.342;2023-04-24T12:48:01;13.70;99.90
2851;DHT22;1433;49.976;8.342;2023-04-24T12:50:27;14.50;99.90
2851;DHT22;1433;49.976;8.342;2023-04-24T12:52:58;14.80;99.90
2851;DHT22;1433;49.976;8.342;2023-04-24T12:55:22;14.90;1.00
2851;DHT22;1433;49.976;8.342;2023-04-24T12:57:48;14.60;99.90
2851;DHT22;1433;49.976;8.342;2023-04-24T13:00:15;14.70;1.00
2851;DHT22;1433;49.976;8.342;2023-04-24T13:02:42;14.90;1.00
2851;DHT22;1433;49.976;8.342;2023-04-24T13:05:08;15.10;1.00
2851;DHT22;1433;49.976;8.342;2023-04-24T13:07:35;15.10;1.00
2851;DHT22;1433;49.976;8.342;2023-04-24T13:10:01;15.70;1.00
2851;DHT22;1433;49.976;8.342;2023-04-24T13:12:28;16.90;63.40
2851;DHT22;1433;49.976;8.342;2023-04-24T13:14:55;16.80;1.00
2851;DHT22;1433;49.976;8.342;2023-04-24T13:17:22;16.10;1.00
2851;DHT22;1433;49.976;8.342;2023-04-24T13:19:50;15.80;1.00
2851;DHT22;1433;49.976;8.342;2023-04-24T13:22:17;15.10;1.00
2851;DHT22;1433;49.976;8.342;2023-04-24T13:24:47;14.60;1.00
2851;DHT22;1433;49.976;8.342;2023-04-24T13:27:18;14.40;1.00
2851;DHT22;1433;49.976;8.342;2023-04-24T13:29:45;13.80;86.30
2851;DHT22;1433;49.976;8.342;2023-04-24T13:32:14;13.20;99.90
2851;DHT22;1433;49.976;8.342;2023-04-24T13:34:40;12.70;99.90
2851;DHT22;1433;49.976;8.342;2023-04-24T13:37:07;12.30;11.60
2851;DHT22;1433;49.976;8.342;2023-04-24T13:39:34;12.40;99.90
2851;DHT22;1433;49.976;8.342;2023-04-24T13:42:02;12.90;1.00
2851;DHT22;1433;49.976;8.342;2023-04-24T13:44:29;13.40;1.00
2851;DHT22;1433;49.976;8.342;2023-04-24T13:46:56;13.70;99.90
2851;DHT22;1433;49.976;8.342;2023-04-24T13:49:23;13.90;61.70
2851;DHT22;1433;49.976;8.342;2023-04-24T13:51:51;14.80;1.00
2851;DHT22;1433;49.976;8.342;2023-04-24T13:54:18;14.90;99.90
2851;DHT22;1433;49.976;8.342;2023-04-24T13:56:44;14.60;1.00
2851;DHT22;1433;49.976;8.342;2023-04-24T13:59:12;14.40;99.90
2851;DHT22;1433;49.976;8.342;2023-04-24T14:01:38;14.50;1.00
2851;DHT22;1433;49.976;8.342;2023-04-24T14:04:04;14.40;1.00
2851;DHT22;1433;49.976;8.342;2023-04-24T14:06:31;14.20;99.90
2851;DHT22;1433;49.976;8.342;2023-04-24T14:08:57;14.30;99.90
2851;DHT22;1433;49.976;8.342;2023-04-24T14:11:23;14.40;1.00
2851;DHT22;1433;49.976;8.342;2023-04-24T14:13:50;14.40;1.00
2851;DHT22;1433;49.976;8.342;2023-04-24T14:16:16;14.60;1.00
2851;DHT22;1433;49.976;8.342;2023-04-24T14:18:42;14.40;17.30
2851;DHT22;1433;49.976;8.342;2023-04-24T14:21:08;14.60;99.90
2851;DHT22;1433;49.976;8.342;2023-04-24T14:23:34;14.80;99.90
2851;DHT22;1433;49.976;8.342;2023-04-24T14:26:01;15.00;99.90
2851;DHT22;1433;49.976;8.342;2023-04-24T14:28:28;15.00;99.90
2851;DHT22;1433;49.976;8.342;2023-04-24T14:30:54;15.00;1.00
2851;DHT22;1433;49.976;8.342;2023-04-24T14:33:21;15.10;99.90
2851;DHT22;1433;49.976;8.342;2023-04-24T14:35:47;15.30;37.40
2851;DHT22;1433;49.976;8.342;2023-04-24T14:38:14;15.60;39.00
2851;DHT22;1433;49.976;8.342;2023-04-24T14:40:41;15.50;1.00
2851;DHT22;1433;49.976;8.342;2023-04-24T14:43:07;15.60;99.90
2851;DHT22;1433;49.976;8.342;2023-04-24T14:45:33;15.20;1.00
2851;DHT22;1433;49.976;8.342;2023-04-24T14:48:00;15.10;1.00
2851;DHT22;1433;49.976;8.342;2023-04-24T14:50:26;14.80;99.90
2851;DHT22;1433;49.976;8.342;2023-04-24T14:52:55;14.70;99.90
2851;DHT22;1433;49.976;8.342;2023-04-24T14:55:25;14.50;17.10
2851;DHT22;1433;49.976;8.342;2023-04-24T14:57:52;14.50;1.00
2851;DHT22;1433;49.976;8.342;2023-04-24T15:00:19;14.60;10.30
2851;DHT22;1433;49.976;8.342;2023-04-24T15:02:46;14.80;5.70
2851;DHT22;1433;49.976;8.342;2023-04-24T15:05:12;15.00;99.90
2851;DHT22;1433;49.976;8.342;2023-04-24T15:07:38;14.90;99.90
2851;DHT22;1433;49.976;8.342;2023-04-24T15:10:06;15.70;99.90
2851;DHT22;1433;49.976;8.342;2023-04-24T15:12:33;16.00;99.90
2851;DHT22;1433;49.976;8.342;2023-04-24T15:14:59;16.00;1.00
2851;DHT22;1433;49.976;8.342;2023-04-24T15:17:26;15.60;1.00
2851;DHT22;1433;49.976;8.342;2023-04-24T15:19:52;15.40;1.00
2851;DHT22;1433;49.976;8.342;2023-04-24T15:22:27;15.90;1.00
2851;DHT22;1433;49.976;8.342;2023-04-24T15:24:53;16.50;1.00
2851;DHT22;1433;49.976;8.342;2023-04-24T15:27:25;16.70;1.00
2851;DHT22;1433;49.976;8.342;2023-04-24T15:29:53;16.50;1.00
2851;DHT22;1433;49.976;8.342;2023-04-24T15:32:20;16.00;1.00
2851;DHT22;1433;49.976;8.342;2023-04-24T15:34:47;15.40;99.90
2851;DHT22;1433;49.976;8.342;2023-04-24T15:37:16;15.30;1.00
2851;DHT22;1433;49.976;8.342;2023-04-24T15:39:44;15.20;1.00
2851;DHT22;1433;49.976;8.342;2023-04-24T15:42:11;15.00;1.00
2851;DHT22;1433;49.976;8.342;2023-04-24T15:44:38;15.20;1.00
2851;DHT22;1433;49.976;8.342;2023-04-24T15:47:04;15.20;99.90
2851;DHT22;1433;49.976;8.342;2023-04-24T15:49:31;14.80;1.00
2851;DHT22;1433;49.976;8.342;2023-04-24T15:51:57;14.60;1.00
2851;DHT22;1433;49.976;8.342;2023-04-24T15:54:23;14.40;1.00
2851;DHT22;1433;49.976;8.342;2023-04-24T15:56:50;14.20;99.90
2851;DHT22;1433;49.976;8.342;2023-04-24T15:59:17;14.10;1.00
2851;DHT22;1433;49.976;8.342;2023-04-24T16:01:43;14.00;1.00
2851;DHT22;1433;49.976;8.342;2023-04-24T16:04:10;13.90;68.40
2851;DHT22;1433;49.976;8.342;2023-04-24T16:06:36;13.80;99.90
2851;DHT22;1433;49.976;8.342;2023-04-24T16:09:02;13.80;99.90
2851;DHT22;1433;49.976;8.342;2023-04-24T16:11:28;13.90;99.90
2851;DHT22;1433;49.976;8.342;2023-04-24T16:13:54;14.00;1.00
2851;DHT22;1433;49.976;8.342;2023-04-24T16:16:21;14.00;99.90
2851;DHT22;1433;49.976;8.342;2023-04-24T16:18:49;14.20;99.90
2851;DHT22;1433;49.976;8.342;2023-04-24T16:21:15;14.50;1.00
2851;DHT22;1433;49.976;8.342;2023-04-24T16:23:41;14.50;99.90
2851;DHT22;1433;49.976;8.342;2023-04-24T16:26:07;14.50;1.00
2851;DHT22;1433;49.976;8.342;2023-04-24T16:28:33;14.60;1.00